sensor_id;sensor_type;location;lat;lon;timestamp;pressure;altitude;pressure_sealevel;temperature;humidity
64078;BME280;51039;49.696;10.808;2023-06-24T00:02:10;99264.25;;;14.89;100.00
64078;BME280;51039;49.696;10.808;2023-06-24T00:04:35;99268.59;;;14.90;100.00
64078;BME280;51039;49.696;10.808;2023-06-24T00:07:01;99268.16;;;14.86;99.62
64078;BME280;51039;49.696;10.808;2023-06-24T00:09:29;99268.16;;;14.80;99.83
64078;BME280;51039;49.696;10.808;2023-06-24T00:11:55;99269.22;;;14.72;100.00
64078;BME280;51039;49.696;10.808;2023-06-24T00:14:21;99263.25;;;14.70;100.00
64078;BME280;51039;49.696;10.808;2023-06-24T00:16:49;99266.97;;;14.69;100.00
64078;BME280;51039;49.696;10.808;2023-06-24T00:19:18;99261.81;;;14.74;100.00
64078;BME280;51039;49.696;10.808;2023-06-24T00:21:45;99268.81;;;14.68;100.00
64078;BME280;51039;49.696;10.808;2023-06-24T00:24:10;99272.72;;;14.72;100.00
64078;BME280;51039;49.696;10.808;2023-06-24T00:26:36;99266.13;;;14.75;100.00
64078;BME280;51039;49.696;10.808;2023-06-24T00:29:01;99261.81;;;14.81;100.00
64078;BME280;51039;49.696;10.808;2023-06-24T00:31:26;99266.75;;;14.77;100.00
64078;BME280;51039;49.696;10.808;2023-06-24T00:33:52;99255.25;;;14.70;100.00
64078;BME280;51039;49.696;10.808;2023-06-24T00:36:17;99261.19;;;14.72;100.00
64078;BME280;51039;49.696;10.808;2023-06-24T00:38:43;99256.91;;;14.64;100.00
64078;BME280;51039;49.696;10.808;2023-06-24T00:41:09;99255.47;;;14.55;100.00
64078;BME280;51039;49.696;10.808;2023-06-24T00:43:34;99243.78;;;14.49;100.00
64078;BME280;51039;49.696;10.808;2023-06-24T00:46:00;99249.09;;;14.43;100.00
64078;BME280;51039;49.696;10.808;2023-06-24T00:48:25;99240.72;;;14.46;100.00
64078;BME280;51039;49.696;10.808;2023-06-24T00:50:51;99240.28;;;14.42;100.00
64078;BME280;51039;49.696;10.808;2023-06-24T00:53:17;99240.69;;;14.39;100.00
64078;BME280;51039;49.696;10.808;2023-06-24T00:55:42;99238.63;;;14.41;100.00
64078;BME280;51039;49.696;10.808;2023-06-24T00:58:10;99232.50;;;14.41;100.00
64078;BME280;51039;49.696;10.808;2023-06-24T01:00:40;99234.78;;;14.30;100.00
64078;BME280;51039;49.696;10.808;2023-06-24T01:03:07;99235.19;;;14.21;100.00
64078;BME280;51039;49.696;10.808;2023-06-24T01:05:33;99237.22;;;14.12;100.00
64078;BME280;51039;49.696;10.808;2023-06-24T01:08:01;99227.78;;;14.09;100.00
64078;BME280;51039;49.696;10.808;2023-06-24T01:10:27;99231.28;;;14.17;100.00
64078;BME280;51039;49.696;10.808;2023-06-24T01:12:52;99225.75;;;14.11;100.00
64078;BME280;51039;49.696;10.808;2023-06-24T01:15:18;99229.84;;;14.07;100.00
64078;BME280;51039;49.696;10.808;2023-06-24T01:31:52;99216.09;;;13.84;100.00
64078;BME280;51039;49.696;10.808;2023-06-24T01:34:28;99214.22;;;13.78;100.00
64078;BME280;51039;49.696;10.808;2023-06-24T01:40:00;99214.63;;;13.61;100.00
64078;BME280;51039;49.696;10.808;2023-06-24T01:42:37;99206.16;;;13.51;100.00
64078;BME280;51039;49.696;10.808;2023-06-24T01:45:06;99213.16;;;13.52;100.00
64078;BME280;51039;49.696;10.808;2023-06-24T01:47:34;99212.16;;;13.53;100.00
64078;BME280;51039;49.696;10.808;2023-06-24T01:50:01;99202.31;;;13.53;100.00
64078;BME280;51039;49.696;10.808;2023-06-24T01:52:28;99205.16;;;13.52;100.00
64078;BME280;51039;49.696;10.808;2023-06-24T01:54:55;99201.28;;;13.48;100.00
64078;BME280;51039;49.696;10.808;2023-06-24T01:57:23;99203.31;;;13.46;100.00
64078;BME280;51039;49.696;10.808;2023-06-24T01:59:52;99203.09;;;13.41;100.00
64078;BME280;51039;49.696;10.808;2023-06-24T02:02:20;99201.84;;;13.43;100.00
64078;BME280;51039;49.696;10.808;2023-06-24T02:04:46;99199.19;;;13.43;100.00
64078;BME280;51039;49.696;10.808;2023-06-24T02:07:14;99195.91;;;13.41;100.00
64078;BME280;51039;49.696;10.808;2023-06-24T02:09:42;99194.28;;;13.40;100.00
64078;BME280;51039;49.696;10.808;2023-06-24T02:12:10;99196.53;;;13.37;100.00
64078;BME280;51039;49.696;10.808;2023-06-24T02:14:37;99193.41;;;13.26;100.00
64078;BME280;51039;49.696;10.808;2023-06-24T02:17:04;99198.88;;;13.18;100.00
64078;BME280;51039;49.696;10.808;2023-06-24T02:19:31;99193.56;;;13.18;100.00
64078;BME280;51039;49.696;10.808;2023-06-24T02:21:58;99192.75;;;13.18;100.00
64078;BME280;51039;49.696;10.808;2023-06-24T02:24:24;99188.66;;;13.15;100.00
64078;BME280;51039;49.696;10.808;2023-06-24T02:26:53;99189.22;;;13.10;100.00
64078;BME280;51039;49.696;10.808;2023-06-24T02:29:21;99191.50;;;13.07;100.00
64078;BME280;51039;49.696;10.808;2023-06-24T02:31:47;99199.22;;;13.02;100.00
64078;BME280;51039;49.696;10.808;2023-06-24T02:34:13;99191.44;;;13.00;100.00
64078;BME280;51039;49.696;10.808;2023-06-24T02:36:39;99184.88;;;12.96;100.00
64078;BME280;51039;49.696;10.808;2023-06-24T02:39:04;99183.03;;;12.90;100.00
64078;BME280;51039;49.696;10.808;2023-06-24T02:41:29;99186.50;;;12.90;100.00
64078;BME280;51039;49.696;10.808;2023-06-24T02:43:55;99193.03;;;12.88;100.00
64078;BME280;51039;49.696;10.808;2023-06-24T02:46:20;99202.00;;;12.80;100.00
64078;BME280;51039;49.696;10.808;2023-06-24T02:48:46;99197.03;;;12.70;100.00
64078;BME280;51039;49.696;10.808;2023-06-24T02:51:14;99197.59;;;12.66;100.00
64078;BME280;51039;49.696;10.808;2023-06-24T02:53:40;99197.78;;;12.64;100.00
64078;BME280;51039;49.696;10.808;2023-06-24T02:56:06;99194.94;;;12.66;100.00
64078;BME280;51039;49.696;10.808;2023-06-24T02:58:33;99204.56;;;12.67;100.00
64078;BME280;51039;49.696;10.808;2023-06-24T03:01:03;99209.03;;;12.66;100.00
64078;BME280;51039;49.696;10.808;2023-06-24T03:03:28;99209.28;;;12.71;100.00
64078;BME280;51039;49.696;10.808;2023-06-24T03:05:55;99206.59;;;12.65;100.00
64078;BME280;51039;49.696;10.808;2023-06-24T03:08:23;99211.53;;;12.68;100.00
64078;BME280;51039;49.696;10.808;2023-06-24T03:10:50;99214.19;;;12.68;100.00
64078;BME280;51039;49.696;10.808;2023-06-24T03:13:16;99210.91;;;12.66;100.00
64078;BME280;51039;49.696;10.808;2023-06-24T03:15:41;99210.50;;;12.69;100.00
64078;BME280;51039;49.696;10.808;2023-06-24T03:18:07;99213.97;;;12.69;100.00
64078;BME280;51039;49.696;10.808;2023-06-24T03:20:32;99215.03;;;12.75;100.00
64078;BME280;51039;49.696;10.808;2023-06-24T03:23:03;99212.38;;;12.75;100.00
64078;BME280;51039;49.696;10.808;2023-06-24T03:25:30;99215.28;;;12.80;100.00
64078;BME280;51039;49.696;10.808;2023-06-24T03:27:55;99216.53;;;12.84;100.00
64078;BME280;51039;49.696;10.808;2023-06-24T03:30:21;99218.03;;;12.93;100.00
64078;BME280;51039;49.696;10.808;2023-06-24T03:32:46;99226.63;;;12.95;100.00
64078;BME280;51039;49.696;10.808;2023-06-24T03:35:12;99226.22;;;12.99;100.00
64078;BME280;51039;49.696;10.808;2023-06-24T03:37:38;99234.00;;;13.00;100.00
64078;BME280;51039;49.696;10.808;2023-06-24T03:40:12;99229.13;;;13.10;100.00
64078;BME280;51039;49.696;10.808;2023-06-24T03:42:37;99235.50;;;13.16;100.00
64078;BME280;51039;49.696;10.808;2023-06-24T03:45:03;99240.25;;;13.21;100.00
64078;BME280;51039;49.696;10.808;2023-06-24T03:47:29;99234.16;;;13.33;100.00
64078;BME280;51039;49.696;10.808;2023-06-24T03:49:54;99245.69;;;13.47;100.00
64078;BME280;51039;49.696;10.808;2023-06-24T03:52:19;99245.91;;;13.52;100.00
64078;BME280;51039;49.696;10.808;2023-06-24T03:54:45;99254.53;;;13.61;100.00
64078;BME280;51039;49.696;10.808;2023-06-24T03:57:11;99259.28;;;13.79;100.00
64078;BME280;51039;49.696;10.808;2023-06-24T03:59:37;99263.25;;;14.03;100.00
64078;BME280;51039;49.696;10.808;2023-06-24T04:02:02;99263.44;;;14.22;98.50
64078;BME280;51039;49.696;10.808;2023-06-24T04:04:28;99262.63;;;14.28;97.77
64078;BME280;51039;49.696;10.808;2023-06-24T04:06:53;99264.69;;;14.39;96.97
64078;BME280;51039;49.696;10.808;2023-06-24T04:09:18;99276.19;;;14.73;94.99
64078;BME280;51039;49.696;10.808;2023-06-24T04:11:44;99278.91;;;15.31;92.12
64078;BME280;51039;49.696;10.808;2023-06-24T04:14:09;99273.00;;;16.38;86.68
64078;BME280;51039;49.696;10.808;2023-06-24T04:16:35;99284.84;;;17.36;80.62
64078;BME280;51039;49.696;10.808;2023-06-24T04:19:00;99288.44;;;18.09;77.03
64078;BME280;51039;49.696;10.808;2023-06-24T04:21:26;99282.13;;;18.57;74.76
64078;BME280;51039;49.696;10.808;2023-06-24T04:23:52;99289.25;;;18.99;71.96
64078;BME280;51039;49.696;10.808;2023-06-24T04:26:17;99289.66;;;19.43;69.78
64078;BME280;51039;49.696;10.808;2023-06-24T04:28:42;99289.00;;;19.65;68.69
64078;BME280;51039;49.696;10.808;2023-06-24T04:31:08;99286.22;;;20.51;64.74
64078;BME280;51039;49.696;10.808;2023-06-24T04:33:33;99286.41;;;21.17;63.03
64078;BME280;51039;49.696;10.808;2023-06-24T04:35:58;99292.97;;;21.65;60.94
64078;BME280;51039;49.696;10.808;2023-06-24T04:38:24;99294.66;;;22.26;59.05
64078;BME280;51039;49.696;10.808;2023-06-24T04:40:49;99286.22;;;22.87;57.04
64078;BME280;51039;49.696;10.808;2023-06-24T04:43:15;99298.13;;;23.33;55.29
64078;BME280;51039;49.696;10.808;2023-06-24T04:45:40;99300.00;;;24.22;53.10
64078;BME280;51039;49.696;10.808;2023-06-24T04:48:05;99298.06;;;24.94;50.83
64078;BME280;51039;49.696;10.808;2023-06-24T04:50:31;99302.75;;;24.63;51.25
64078;BME280;51039;49.696;10.808;2023-06-24T04:52:56;99312.19;;;24.24;52.81
64078;BME280;51039;49.696;10.808;2023-06-24T04:55:22;99297.88;;;22.92;54.62
64078;BME280;51039;49.696;10.808;2023-06-24T04:57:48;99307.00;;;22.86;56.61
64078;BME280;51039;49.696;10.808;2023-06-24T05:00:13;99305.09;;;23.87;53.84
64078;BME280;51039;49.696;10.808;2023-06-24T05:02:39;99308.09;;;24.06;52.29
64078;BME280;51039;49.696;10.808;2023-06-24T05:05:04;99313.66;;;23.06;55.43
64078;BME280;51039;49.696;10.808;2023-06-24T05:07:29;99316.53;;;24.61;51.65
64078;BME280;51039;49.696;10.808;2023-06-24T05:09:55;99308.16;;;25.69;49.41
64078;BME280;51039;49.696;10.808;2023-06-24T05:12:20;99311.38;;;26.90;46.51
64078;BME280;51039;49.696;10.808;2023-06-24T05:14:49;99311.84;;;26.97;45.76
64078;BME280;51039;49.696;10.808;2023-06-24T05:17:18;99315.53;;;26.82;46.42
64078;BME280;51039;49.696;10.808;2023-06-24T05:19:44;99311.69;;;27.12;45.58
64078;BME280;51039;49.696;10.808;2023-06-24T05:22:09;99320.47;;;27.33;45.10
64078;BME280;51039;49.696;10.808;2023-06-24T05:24:34;99320.63;;;28.23;43.39
64078;BME280;51039;49.696;10.808;2023-06-24T05:27:03;99313.56;;;28.41;42.88
64078;BME280;51039;49.696;10.808;2023-06-24T05:29:30;99317.38;;;29.20;41.00
64078;BME280;51039;49.696;10.808;2023-06-24T05:31:56;99319.78;;;29.77;39.72
64078;BME280;51039;49.696;10.808;2023-06-24T05:34:21;99307.13;;;29.81;40.20
64078;BME280;51039;49.696;10.808;2023-06-24T05:36:46;99323.16;;;29.96;39.74
64078;BME280;51039;49.696;10.808;2023-06-24T05:39:12;99314.19;;;30.32;39.05
64078;BME280;51039;49.696;10.808;2023-06-24T05:41:38;99312.03;;;31.05;37.33
64078;BME280;51039;49.696;10.808;2023-06-24T05:44:04;99318.56;;;31.27;36.15
64078;BME280;51039;49.696;10.808;2023-06-24T05:46:31;99323.13;;;29.46;39.77
64078;BME280;51039;49.696;10.808;2023-06-24T05:48:57;99314.88;;;30.91;37.92
64078;BME280;51039;49.696;10.808;2023-06-24T05:51:22;99329.06;;;31.34;36.89
64078;BME280;51039;49.696;10.808;2023-06-24T05:53:47;99325.84;;;32.15;35.87
64078;BME280;51039;49.696;10.808;2023-06-24T05:56:13;99322.63;;;33.13;34.06
64078;BME280;51039;49.696;10.808;2023-06-24T05:58:38;99320.50;;;33.48;33.45
64078;BME280;51039;49.696;10.808;2023-06-24T06:01:03;99312.19;;;33.87;32.94
64078;BME280;51039;49.696;10.808;2023-06-24T06:03:29;99316.16;;;34.52;31.46
64078;BME280;51039;49.696;10.808;2023-06-24T06:05:54;99314.06;;;34.95;30.93
64078;BME280;51039;49.696;10.808;2023-06-24T06:08:19;99314.59;;;35.22;30.57
64078;BME280;51039;49.696;10.808;2023-06-24T06:10:45;99317.16;;;33.93;32.89
64078;BME280;51039;49.696;10.808;2023-06-24T06:13:10;99326.41;;;33.29;33.61
64078;BME280;51039;49.696;10.808;2023-06-24T06:15:35;99328.19;;;33.63;33.18
64078;BME280;51039;49.696;10.808;2023-06-24T06:18:00;99320.78;;;35.18;30.79
64078;BME280;51039;49.696;10.808;2023-06-24T06:20:26;99321.22;;;35.57;29.78
64078;BME280;51039;49.696;10.808;2023-06-24T06:22:51;99319.84;;;35.51;29.31
64078;BME280;51039;49.696;10.808;2023-06-24T06:25:16;99311.34;;;35.07;30.01
64078;BME280;51039;49.696;10.808;2023-06-24T06:27:42;99325.25;;;33.69;32.21
64078;BME280;51039;49.696;10.808;2023-06-24T06:30:07;99315.13;;;33.52;33.04
64078;BME280;51039;49.696;10.808;2023-06-24T06:32:33;99313.56;;;34.35;31.55
64078;BME280;51039;49.696;10.808;2023-06-24T06:34:58;99307.25;;;35.38;30.11
64078;BME280;51039;49.696;10.808;2023-06-24T06:37:24;99308.00;;;34.89;30.54
64078;BME280;51039;49.696;10.808;2023-06-24T06:39:49;99306.38;;;35.87;29.40
64078;BME280;51039;49.696;10.808;2023-06-24T06:42:15;99307.09;;;36.12;29.01
64078;BME280;51039;49.696;10.808;2023-06-24T06:44:40;99307.41;;;34.84;30.29
64078;BME280;51039;49.696;10.808;2023-06-24T06:47:06;99305.25;;;35.63;29.38
64078;BME280;51039;49.696;10.808;2023-06-24T06:49:31;99306.78;;;36.58;27.70
64078;BME280;51039;49.696;10.808;2023-06-24T06:51:57;99305.84;;;36.66;27.68
64078;BME280;51039;49.696;10.808;2023-06-24T06:54:22;99304.84;;;36.74;27.82
64078;BME280;51039;49.696;10.808;2023-06-24T06:56:47;99301.84;;;36.95;27.74
64078;BME280;51039;49.696;10.808;2023-06-24T06:59:12;99305.78;;;36.34;28.83
64078;BME280;51039;49.696;10.808;2023-06-24T07:01:38;99304.59;;;37.11;27.08
64078;BME280;51039;49.696;10.808;2023-06-24T07:04:03;99297.47;;;37.42;27.56
64078;BME280;51039;49.696;10.808;2023-06-24T07:06:29;99295.72;;;37.53;27.25
64078;BME280;51039;49.696;10.808;2023-06-24T07:08:54;99295.19;;;36.80;28.12
64078;BME280;51039;49.696;10.808;2023-06-24T07:11:19;99281.97;;;38.12;26.63
64078;BME280;51039;49.696;10.808;2023-06-24T07:13:45;99283.56;;;38.13;26.35
64078;BME280;51039;49.696;10.808;2023-06-24T07:16:11;99289.22;;;37.45;27.58
64078;BME280;51039;49.696;10.808;2023-06-24T07:18:36;99284.53;;;34.58;30.13
64078;BME280;51039;49.696;10.808;2023-06-24T07:21:01;99286.78;;;33.69;33.53
64078;BME280;51039;49.696;10.808;2023-06-24T07:23:27;99297.47;;;34.58;31.09
64078;BME280;51039;49.696;10.808;2023-06-24T07:25:52;99293.91;;;36.05;29.61
64078;BME280;51039;49.696;10.808;2023-06-24T07:28:17;99285.50;;;33.87;32.01
64078;BME280;51039;49.696;10.808;2023-06-24T07:30:43;99289.53;;;37.24;28.05
64078;BME280;51039;49.696;10.808;2023-06-24T07:33:08;99283.59;;;37.58;27.85
64078;BME280;51039;49.696;10.808;2023-06-24T07:35:34;99281.59;;;36.03;29.41
64078;BME280;51039;49.696;10.808;2023-06-24T07:37:59;99279.75;;;34.01;31.33
64078;BME280;51039;49.696;10.808;2023-06-24T07:40:25;99282.03;;;33.78;31.78
64078;BME280;51039;49.696;10.808;2023-06-24T07:42:51;99288.03;;;34.34;31.82
64078;BME280;51039;49.696;10.808;2023-06-24T07:45:16;99289.28;;;35.81;30.17
64078;BME280;51039;49.696;10.808;2023-06-24T07:47:41;99298.09;;;36.71;28.56
64078;BME280;51039;49.696;10.808;2023-06-24T07:50:07;99298.38;;;36.82;29.16
64078;BME280;51039;49.696;10.808;2023-06-24T07:52:35;99289.34;;;36.53;29.06
64078;BME280;51039;49.696;10.808;2023-06-24T07:55:01;99294.22;;;35.63;29.83
64078;BME280;51039;49.696;10.808;2023-06-24T07:57:26;99297.22;;;36.11;28.50
64078;BME280;51039;49.696;10.808;2023-06-24T07:59:52;99290.59;;;34.64;30.38
64078;BME280;51039;49.696;10.808;2023-06-24T08:02:19;99283.91;;;36.01;29.21
64078;BME280;51039;49.696;10.808;2023-06-24T08:04:45;99290.09;;;38.04;26.48
64078;BME280;51039;49.696;10.808;2023-06-24T08:07:10;99290.81;;;38.83;24.95
64078;BME280;51039;49.696;10.808;2023-06-24T08:09:35;99288.53;;;35.96;28.59
64078;BME280;51039;49.696;10.808;2023-06-24T08:12:00;99283.03;;;35.19;30.66
64078;BME280;51039;49.696;10.808;2023-06-24T08:14:26;99277.41;;;33.40;32.08
64078;BME280;51039;49.696;10.808;2023-06-24T08:16:51;99282.25;;;35.18;30.14
64078;BME280;51039;49.696;10.808;2023-06-24T08:19:16;99288.66;;;36.88;27.41
64078;BME280;51039;49.696;10.808;2023-06-24T08:21:42;99281.81;;;38.89;25.45
64078;BME280;51039;49.696;10.808;2023-06-24T08:24:07;99288.28;;;37.92;24.96
64078;BME280;51039;49.696;10.808;2023-06-24T08:26:33;99290.41;;;37.12;25.85
64078;BME280;51039;49.696;10.808;2023-06-24T08:28:58;99280.28;;;38.07;24.58
64078;BME280;51039;49.696;10.808;2023-06-24T08:31:24;99283.53;;;38.52;25.26
64078;BME280;51039;49.696;10.808;2023-06-24T08:33:53;99283.56;;;38.75;24.17
64078;BME280;51039;49.696;10.808;2023-06-24T08:36:21;99262.91;;;37.00;27.04
64078;BME280;51039;49.696;10.808;2023-06-24T08:38:46;99278.94;;;38.82;21.15
64078;BME280;51039;49.696;10.808;2023-06-24T08:41:12;99278.97;;;37.62;22.39
64078;BME280;51039;49.696;10.808;2023-06-24T08:43:37;99275.16;;;36.11;23.52
64078;BME280;51039;49.696;10.808;2023-06-24T08:46:03;99274.72;;;33.82;25.18
64078;BME280;51039;49.696;10.808;2023-06-24T08:48:29;99285.63;;;35.65;26.73
64078;BME280;51039;49.696;10.808;2023-06-24T08:50:55;99280.34;;;37.36;22.92
64078;BME280;51039;49.696;10.808;2023-06-24T08:53:23;99282.19;;;35.43;24.82
64078;BME280;51039;49.696;10.808;2023-06-24T08:55:51;99269.28;;;35.84;25.79
64078;BME280;51039;49.696;10.808;2023-06-24T08:58:18;99272.28;;;31.57;29.40
64078;BME280;51039;49.696;10.808;2023-06-24T09:00:44;99275.84;;;32.92;28.82
64078;BME280;51039;49.696;10.808;2023-06-24T09:03:09;99268.38;;;34.57;26.16
64078;BME280;51039;49.696;10.808;2023-06-24T09:05:34;99266.50;;;31.67;30.22
64078;BME280;51039;49.696;10.808;2023-06-24T09:08:00;99268.00;;;30.30;32.06
64078;BME280;51039;49.696;10.808;2023-06-24T09:10:32;99273.25;;;31.12;31.67
64078;BME280;51039;49.696;10.808;2023-06-24T09:12:59;99275.09;;;31.43;30.42
64078;BME280;51039;49.696;10.808;2023-06-24T09:15:29;99273.25;;;32.57;30.06
64078;BME280;51039;49.696;10.808;2023-06-24T09:17:55;99276.69;;;32.83;29.57
64078;BME280;51039;49.696;10.808;2023-06-24T09:20:21;99266.13;;;34.84;26.20
64078;BME280;51039;49.696;10.808;2023-06-24T09:22:47;99265.78;;;35.10;25.11
64078;BME280;51039;49.696;10.808;2023-06-24T09:25:17;99273.19;;;33.72;26.49
64078;BME280;51039;49.696;10.808;2023-06-24T09:27:47;99265.78;;;33.04;27.04
64078;BME280;51039;49.696;10.808;2023-06-24T09:30:20;99262.59;;;32.38;29.29
64078;BME280;51039;49.696;10.808;2023-06-24T09:32:49;99260.28;;;31.26;29.28
64078;BME280;51039;49.696;10.808;2023-06-24T09:35:19;99255.06;;;30.99;29.34
64078;BME280;51039;49.696;10.808;2023-06-24T09:37:49;99256.00;;;33.75;26.06
64078;BME280;51039;49.696;10.808;2023-06-24T09:40:16;99244.22;;;34.87;24.86
64078;BME280;51039;49.696;10.808;2023-06-24T09:42:58;99243.16;;;32.78;27.71
64078;BME280;51039;49.696;10.808;2023-06-24T09:45:29;99248.50;;;32.74;29.10
64078;BME280;51039;49.696;10.808;2023-06-24T09:47:55;99244.06;;;33.92;26.74
64078;BME280;51039;49.696;10.808;2023-06-24T09:50:22;99246.63;;;35.13;25.69
64078;BME280;51039;49.696;10.808;2023-06-24T09:52:49;99244.75;;;34.56;25.65
64078;BME280;51039;49.696;10.808;2023-06-24T09:55:15;99245.94;;;34.79;28.63
64078;BME280;51039;49.696;10.808;2023-06-24T09:57:46;99229.53;;;35.08;27.61
64078;BME280;51039;49.696;10.808;2023-06-24T10:00:13;99227.88;;;34.45;27.56
64078;BME280;51039;49.696;10.808;2023-06-24T10:02:43;99224.44;;;33.39;27.44
64078;BME280;51039;49.696;10.808;2023-06-24T10:05:09;99220.53;;;32.34;29.46
64078;BME280;51039;49.696;10.808;2023-06-24T10:07:34;99221.69;;;31.72;30.12
64078;BME280;51039;49.696;10.808;2023-06-24T10:10:02;99220.09;;;32.05;29.95
64078;BME280;51039;49.696;10.808;2023-06-24T10:12:28;99222.09;;;32.43;28.02
64078;BME280;51039;49.696;10.808;2023-06-24T10:14:54;99220.13;;;33.00;27.83
64078;BME280;51039;49.696;10.808;2023-06-24T10:17:19;99211.81;;;34.01;29.10
64078;BME280;51039;49.696;10.808;2023-06-24T10:19:44;99210.66;;;32.89;27.63
64078;BME280;51039;49.696;10.808;2023-06-24T10:22:10;99211.59;;;32.93;27.87
64078;BME280;51039;49.696;10.808;2023-06-24T10:24:39;99202.97;;;33.12;27.91
64078;BME280;51039;49.696;10.808;2023-06-24T10:27:13;99199.06;;;32.27;29.11
64078;BME280;51039;49.696;10.808;2023-06-24T10:29:45;99203.16;;;31.77;29.18
64078;BME280;51039;49.696;10.808;2023-06-24T10:32:12;99204.56;;;32.27;27.67
64078;BME280;51039;49.696;10.808;2023-06-24T10:37:13;99194.97;;;32.89;25.91
64078;BME280;51039;49.696;10.808;2023-06-24T10:44:51;99191.38;;;32.20;28.30
64078;BME280;51039;49.696;10.808;2023-06-24T10:47:17;99185.63;;;31.61;27.44
64078;BME280;51039;49.696;10.808;2023-06-24T10:49:43;99182.53;;;31.45;27.06
64078;BME280;51039;49.696;10.808;2023-06-24T10:52:12;99174.72;;;33.32;25.31
64078;BME280;51039;49.696;10.808;2023-06-24T10:54:38;99173.63;;;32.00;27.44
64078;BME280;51039;49.696;10.808;2023-06-24T10:57:05;99174.25;;;32.23;27.61
64078;BME280;51039;49.696;10.808;2023-06-24T10:59:35;99166.25;;;32.01;27.64
64078;BME280;51039;49.696;10.808;2023-06-24T11:02:01;99180.59;;;31.54;27.33
64078;BME280;51039;49.696;10.808;2023-06-24T11:04:26;99168.44;;;30.23;29.65
64078;BME280;51039;49.696;10.808;2023-06-24T11:07:00;99161.38;;;30.62;29.26
64078;BME280;51039;49.696;10.808;2023-06-24T11:09:27;99152.38;;;30.61;29.22
64078;BME280;51039;49.696;10.808;2023-06-24T11:11:53;99155.97;;;30.79;32.77
64078;BME280;51039;49.696;10.808;2023-06-24T11:14:21;99152.09;;;31.73;31.46
64078;BME280;51039;49.696;10.808;2023-06-24T11:16:47;99144.34;;;31.22;28.52
64078;BME280;51039;49.696;10.808;2023-06-24T11:19:12;99146.38;;;30.90;29.80
64078;BME280;51039;49.696;10.808;2023-06-24T11:21:38;99149.22;;;29.83;31.16
64078;BME280;51039;49.696;10.808;2023-06-24T11:24:03;99142.63;;;29.61;30.97
64078;BME280;51039;49.696;10.808;2023-06-24T11:26:29;99139.66;;;29.49;31.05
64078;BME280;51039;49.696;10.808;2023-06-24T11:28:55;99135.72;;;28.77;32.31
64078;BME280;51039;49.696;10.808;2023-06-24T11:31:26;99140.09;;;27.85;33.49
64078;BME280;51039;49.696;10.808;2023-06-24T11:33:52;99146.56;;;27.18;34.76
64078;BME280;51039;49.696;10.808;2023-06-24T11:36:17;99137.88;;;27.87;35.93
64078;BME280;51039;49.696;10.808;2023-06-24T11:38:45;99140.53;;;28.25;33.84
64078;BME280;51039;49.696;10.808;2023-06-24T11:41:11;99137.47;;;28.59;33.78
64078;BME280;51039;49.696;10.808;2023-06-24T11:43:36;99141.81;;;28.74;33.01
64078;BME280;51039;49.696;10.808;2023-06-24T11:46:01;99133.00;;;28.91;32.34
64078;BME280;51039;49.696;10.808;2023-06-24T11:48:28;99139.78;;;28.05;33.47
64078;BME280;51039;49.696;10.808;2023-06-24T11:50:54;99128.41;;;28.17;32.71
64078;BME280;51039;49.696;10.808;2023-06-24T11:53:40;99136.59;;;27.84;32.92
64078;BME280;51039;49.696;10.808;2023-06-24T11:56:07;99135.56;;;27.99;33.59
64078;BME280;51039;49.696;10.808;2023-06-24T11:58:34;99126.41;;;28.50;35.17
64078;BME280;51039;49.696;10.808;2023-06-24T12:01:00;99125.72;;;29.14;32.67
64078;BME280;51039;49.696;10.808;2023-06-24T12:03:27;99123.50;;;29.16;31.06
64078;BME280;51039;49.696;10.808;2023-06-24T12:05:54;99120.28;;;28.72;30.45
64078;BME280;51039;49.696;10.808;2023-06-24T12:08:19;99120.56;;;29.12;30.55
64078;BME280;51039;49.696;10.808;2023-06-24T12:10:45;99116.63;;;29.41;28.22
64078;BME280;51039;49.696;10.808;2023-06-24T12:13:10;99119.34;;;29.78;28.64
64078;BME280;51039;49.696;10.808;2023-06-24T12:15:36;99122.50;;;30.02;30.36
64078;BME280;51039;49.696;10.808;2023-06-24T12:18:02;99120.75;;;29.52;29.24
64078;BME280;51039;49.696;10.808;2023-06-24T12:20:28;99110.91;;;29.29;28.96
64078;BME280;51039;49.696;10.808;2023-06-24T12:22:55;99115.81;;;29.18;31.35
64078;BME280;51039;49.696;10.808;2023-06-24T12:25:20;99110.00;;;29.33;30.72
64078;BME280;51039;49.696;10.808;2023-06-24T12:27:46;99109.28;;;28.64;32.10
64078;BME280;51039;49.696;10.808;2023-06-24T12:30:12;99107.25;;;29.33;31.45
64078;BME280;51039;49.696;10.808;2023-06-24T12:32:38;99109.75;;;29.44;29.84
64078;BME280;51039;49.696;10.808;2023-06-24T12:35:04;99107.63;;;29.18;29.25
64078;BME280;51039;49.696;10.808;2023-06-24T12:37:32;99104.75;;;29.23;29.46
64078;BME280;51039;49.696;10.808;2023-06-24T12:39:58;99101.47;;;28.98;28.80
64078;BME280;51039;49.696;10.808;2023-06-24T12:42:25;99100.75;;;28.10;29.68
64078;BME280;51039;49.696;10.808;2023-06-24T12:44:51;99100.47;;;28.25;31.78
64078;BME280;51039;49.696;10.808;2023-06-24T12:47:16;99099.28;;;28.73;34.73
64078;BME280;51039;49.696;10.808;2023-06-24T12:49:41;99090.56;;;29.35;31.59
64078;BME280;51039;49.696;10.808;2023-06-24T12:52:07;99082.06;;;29.14;31.61
64078;BME280;51039;49.696;10.808;2023-06-24T12:54:32;99080.28;;;28.40;33.60
64078;BME280;51039;49.696;10.808;2023-06-24T12:56:58;99078.56;;;28.44;32.52
64078;BME280;51039;49.696;10.808;2023-06-24T12:59:23;99080.19;;;28.17;32.83
64078;BME280;51039;49.696;10.808;2023-06-24T13:01:49;99077.56;;;28.40;33.78
64078;BME280;51039;49.696;10.808;2023-06-24T13:04:14;99078.41;;;28.54;32.86
64078;BME280;51039;49.696;10.808;2023-06-24T13:06:39;99079.72;;;28.29;32.70
64078;BME280;51039;49.696;10.808;2023-06-24T13:09:05;99073.94;;;27.37;34.67